Time;durP1;ratioP1;P1;durP2;ratioP2;P2;SDS_P1;SDS_P2;PMS_P1;PMS_P2;Temp;Humidity;BMP_temperature;BMP_pressure;BME280_temperature;BME280_humidity;BME280_pressure;Samples;Min_cycle;Max_cycle;Signal;HPM_P1;HPM_P2
2022/08/06 00:00:22;;;;;;;;;;;;;;;;;;8454025;27;27284;-74
2022/08/06 00:04:22;;;;;;;;;;;;;;;;;;8454635;27;29605;-73
2022/08/06 00:08:25;;;;;;;;;;;;;;;;;;8452765;27;28463;-74
2022/08/06 00:12:25;;;;;;;;;;;;;;;;;;8453464;27;27475;-73
2022/08/06 00:16:25;;;;;;;;;;;;;;;;;;8452985;27;28143;-74
2022/08/06 00:20:25;;;;;;;;;;;;;;;;;;8459584;27;27227;-74
2022/08/06 00:24:25;;;;;;;;;;;;;;;;;;8456109;27;27597;-74
2022/08/06 00:28:25;;;;;;;;;;;;;;;;;;8460065;27;27411;-73
2022/08/06 00:32:26;;;;;;;;;;;;;;;;;;8451862;27;27395;-74
2022/08/06 00:36:26;;;;;;;;;;;;;;;;;;8458551;27;27389;-74
2022/08/06 00:40:26;;;;;;;;;;;;;;;;;;8454986;27;27315;-73
2022/08/06 00:44:26;;;;;;;;;;;;;;;;;;8454793;27;27448;-73
2022/08/06 00:48:26;;;;;;;;;;;;;;;;;;8452691;27;28282;-73
2022/08/06 00:52:26;;;;;;;;;;;;;;;;;;8457458;27;27412;-74
2022/08/06 00:56:27;;;;;;;;;;;;;;;;;;8448529;27;27335;-74
2022/08/06 01:00:27;;;;;;;;;;;;;;;;;;8453599;27;28437;-73
2022/08/06 01:04:27;;;;;;;;;;;;;;;;;;8452824;27;27465;-74
2022/08/06 01:08:27;;;;;;;;;;;;;;;;;;8448886;27;28236;-74
2022/08/06 01:12:27;;;;;;;;;;;;;;;;;;8452520;27;27447;-73
2022/08/06 01:16:30;;;;;;;;;;;;;;;;;;8453866;27;27345;-73
2022/08/06 01:20:30;;;;;;;;;;;;;;;;;;8452595;27;27560;-74
2022/08/06 01:24:30;;;;;;;;;;;;;;;;;;8454403;27;27147;-73
2022/08/06 01:28:33;;;;;;;;;;;;;;;;;;8454532;27;28548;-74
2022/08/06 01:32:33;;;;;;;;;;;;;;;;;;8450598;27;28154;-73
2022/08/06 01:36:33;;;;;;;;;;;;;;;;;;8454049;27;27464;-73
2022/08/06 01:40:33;;;;;;;;;;;;;;;;;;8452909;27;27415;-74
2022/08/06 01:44:33;;;;;;;;;;;;;;;;;;8448422;27;27140;-74
2022/08/06 01:48:33;;;;;;;;;;;;;;;;;;8456403;27;29310;-74
2022/08/06 01:52:34;;;;;;;;;;;;;;;;;;8451007;27;28091;-74
2022/08/06 01:56:34;;;;;;;;;;;;;;;;;;8449515;27;27189;-74
2022/08/06 02:00:34;;;;;;;;;;;;;;;;;;8447816;27;27371;-74
2022/08/06 02:04:34;;;;;;;;;;;;;;;;;;8447349;27;27552;-74
2022/08/06 02:08:34;;;;;;;;;;;;;;;;;;8452227;27;27366;-74
2022/08/06 02:12:34;;;;;;;;;;;;;;;;;;8451818;27;27725;-73
2022/08/06 02:16:34;;;;;;;;;;;;;;;;;;8446468;27;27306;-74
2022/08/06 02:20:35;;;;;;;;;;;;;;;;;;8453978;27;27244;-74
2022/08/06 02:24:35;;;;;;;;;;;;;;;;;;8450308;27;27412;-74
2022/08/06 02:28:35;;;;;;;;;;;;;;;;;;8446369;27;28427;-73
2022/08/06 02:32:35;;;;;;;;;;;;;;;;;;8453747;27;27257;-74
2022/08/06 02:36:35;;;;;;;;;;;;;;;;;;8450886;27;27981;-74
2022/08/06 02:40:36;;;;;;;;;;;;;;;;;;8449725;27;27622;-74
2022/08/06 02:44:36;;;;;;;;;;;;;;;;;;8451932;27;27181;-74
2022/08/06 02:48:38;;;;;;;;;;;;;;;;;;8451882;27;27943;-74
2022/08/06 02:52:38;;;;;;;;;;;;;;;;;;8460640;27;27165;-74
2022/08/06 02:56:38;;;;;;;;;;;;;;;;;;8452323;27;27167;-74
2022/08/06 03:00:39;;;;;;;;;;;;;;;;;;8456826;27;28194;-74
2022/08/06 03:04:39;;;;;;;;;;;;;;;;;;8460715;27;27525;-74
2022/08/06 03:08:39;;;;;;;;;;;;;;;;;;8453794;27;27686;-74
2022/08/06 03:12:39;;;;;;;;;;;;;;;;;;8445048;27;27930;-74
2022/08/06 03:16:39;;;;;;;;;;;;;;;;;;8453898;27;27324;-74
2022/08/06 03:20:39;;;;;;;;;;;;;;;;;;8467947;27;29198;-74
2022/08/06 03:24:39;;;;;;;;;;;;;;;;;;8457965;27;29286;-74
2022/08/06 03:28:40;;;;;;;;;;;;;;;;;;8463857;27;28031;-74
2022/08/06 03:32:40;;;;;;;;;;;;;;;;;;8461479;27;27300;-74
2022/08/06 03:36:40;;;;;;;;;;;;;;;;;;8455000;27;27265;-74
2022/08/06 03:40:40;;;;;;;;;;;;;;;;;;8459076;27;28367;-74
2022/08/06 03:44:40;;;;;;;;;;;;;;;;;;8455210;27;28818;-74
2022/08/06 03:48:40;;;;;;;;;;;;;;;;;;8454830;27;27904;-74
2022/08/06 03:52:40;;;;;;;;;;;;;;;;;;8462348;27;27209;-73
2022/08/06 03:56:43;;;;;;;;;;;;;;;;;;8457834;27;28177;-74
2022/08/06 04:00:43;;;;;;;;;;;;;;;;;;8464202;27;27175;-74
2022/08/06 04:04:43;;;;;;;;;;;;;;;;;;8460320;27;27420;-74
2022/08/06 04:08:43;;;;;;;;;;;;;;;;;;8457842;27;27452;-74
2022/08/06 04:12:44;;;;;;;;;;;;;;;;;;8453577;27;27340;-74
2022/08/06 04:16:44;;;;;;;;;;;;;;;;;;8459246;27;27859;-74
2022/08/06 04:20:44;;;;;;;;;;;;;;;;;;8459045;27;27706;-74
2022/08/06 04:24:44;;;;;;;;;;;;;;;;;;8461287;27;27969;-74
2022/08/06 04:28:44;;;;;;;;;;;;;;;;;;8464138;27;27231;-74
2022/08/06 04:32:44;;;;;;;;;;;;;;;;;;8458456;27;28258;-73
2022/08/06 04:36:47;;;;;;;;;;;;;;;;;;8452923;27;27184;-74
2022/08/06 04:40:47;;;;;;;;;;;;;;;;;;8453133;27;28319;-74
2022/08/06 04:44:47;;;;;;;;;;;;;;;;;;8460842;27;27405;-74
2022/08/06 04:48:47;;;;;;;;;;;;;;;;;;8460802;27;28222;-74
2022/08/06 04:52:47;;;;;;;;;;;;;;;;;;8451413;27;27277;-74
2022/08/06 04:56:47;;;;;;;;;;;;;;;;;;8457612;27;27338;-74
2022/08/06 05:00:48;;;;;;;;;;;;;;;;;;8460745;27;28173;-74
2022/08/06 05:04:55;;;;;;;;;;;;;;;;;;8459964;27;46383;-74
2022/08/06 05:08:57;;;;;;;;;;;;;;;;;;8451145;27;27402;-74
2022/08/06 05:12:57;;;;;;;;;;;;;;;;;;8455201;27;27303;-74
2022/08/06 05:16:58;;;;;;;;;;;;;;;;;;8448417;27;27108;-74
2022/08/06 05:21:00;;;;;;;;;;;;;;;;;;8453789;27;27228;-74
2022/08/06 05:25:00;;;;;;;;;;;;;;;;;;8458196;27;28378;-74
2022/08/06 05:29:00;;;;;;;;;;;;;;;;;;8452455;27;28249;-74
2022/08/06 05:33:00;;;;;;;;;;;;;;;;;;8455525;27;27186;-74
2022/08/06 05:37:01;;;;;;;;;;;;;;;;;;8457797;27;27248;-74
2022/08/06 05:41:01;;;;;;;;;;;;;;;;;;8457871;27;27517;-74
2022/08/06 05:45:01;;;;;;;;;;;;;;;;;;8457761;27;27413;-74
2022/08/06 05:49:01;;;;;;;;;;;;;;;;;;8460654;27;27961;-74
2022/08/06 05:53:01;;;;;;;;;;;;;;;;;;8453856;27;27457;-74
2022/08/06 05:57:01;;;;;;;;;;;;;;;;;;8458642;27;27384;-74
2022/08/06 06:01:01;;;;;;;;;;;;;;;;;;8456481;27;28443;-74
2022/08/06 06:05:02;;;;;;;;;;;;;;;;;;8451488;27;27060;-74
2022/08/06 06:09:02;;;;;;;;;;;;;;;;;;8460932;27;27120;-74
2022/08/06 06:13:02;;;;;;;;;;;;;;;;;;8449817;27;27212;-74
2022/08/06 06:17:02;;;;;;;;;;;;;;;;;;8455827;27;27442;-74
2022/08/06 06:21:03;;;;;;;;;;;;;;;;;;8459668;27;28344;-74
2022/08/06 06:25:03;;;;;;;;;;;;;;;;;;8457445;27;27750;-74
2022/08/06 06:29:03;;;;;;;;;;;;;;;;;;8454623;27;27715;-74
2022/08/06 06:33:03;;;;;;;;;;;;;;;;;;8448390;27;27692;-74
2022/08/06 06:37:03;;;;;;;;;;;;;;;;;;8454713;27;28362;-74
2022/08/06 06:41:03;;;;;;;;;;;;;;;;;;8460879;27;28196;-74
2022/08/06 06:45:04;;;;;;;;;;;;;;;;;;8450993;27;27415;-74
2022/08/06 06:49:04;;;;;;;;;;;;;;;;;;8456603;27;28433;-74
2022/08/06 06:53:05;;;;;;;;;;;;;;;;;;8465439;27;27562;-74
2022/08/06 06:57:05;;;;;;;;;;;;;;;;;;8455211;27;27608;-74
2022/08/06 07:01:05;;;;;;;;;;;;;;;;;;8467713;27;28310;-74
2022/08/06 07:05:05;;;;;;;;;;;;;;;;;;8456073;27;27612;-74
2022/08/06 07:09:05;;;;;;;;;;;;;;;;;;8467442;27;27114;-74
2022/08/06 07:13:06;;;;;;;;;;;;;;;;;;8461010;27;27633;-74
2022/08/06 07:17:06;;;;;;;;;;;;;;;;;;8465614;27;28412;-74
2022/08/06 07:21:06;;;;;;;;;;;;;;;;;;8458280;27;27146;-74
2022/08/06 07:25:06;;;;;;;;;;;;;;;;;;8457632;27;28055;-74
2022/08/06 07:29:06;;;;;;;;;;;;;;;;;;8459926;27;27923;-74
2022/08/06 07:33:06;;;;;;;;;;;;;;;;;;8459297;27;27071;-74
2022/08/06 07:37:06;;;;;;;;;;;;;;;;;;8455309;27;28221;-74
2022/08/06 07:41:07;;;;;;;;;;;;;;;;;;8460099;27;27506;-74
2022/08/06 07:45:07;;;;;;;;;;;;;;;;;;8451556;27;27356;-74
2022/08/06 07:49:07;;;;;;;;;;;;;;;;;;8466328;27;27449;-73
2022/08/06 07:53:07;;;;;;;;;;;;;;;;;;8458932;27;27343;-74
2022/08/06 07:57:07;;;;;;;;;;;;;;;;;;8454911;27;27441;-74
2022/08/06 08:01:07;;;;;;;;;;;;;;;;;;8455647;27;27346;-74
2022/08/06 08:09:29;;;;;;;;;;;;;;;;;;8457437;27;27512;-74
2022/08/06 08:13:29;;;;;;;;;;;;;;;;;;8460384;27;28315;-74
2022/08/06 08:17:29;;;;;;;;;;;;;;;;;;8454237;27;27385;-74
2022/08/06 08:21:29;;;;;;;;;;;;;;;;;;8459959;27;27227;-74
2022/08/06 08:25:29;;;;;;;;;;;;;;;;;;8456602;27;27433;-74
2022/08/06 08:29:29;;;;;;;;;;;;;;;;;;8452698;27;27180;-74
2022/08/06 08:33:29;;;;;;;;;;;;;;;;;;8459652;27;27487;-74
2022/08/06 08:37:30;;;;;;;;;;;;;;;;;;8465230;27;27349;-74
2022/08/06 08:41:30;;;;;;;;;;;;;;;;;;8456694;27;28072;-74
2022/08/06 08:45:30;;;;;;;;;;;;;;;;;;8459735;27;29017;-74
2022/08/06 08:49:30;;;;;;;;;;;;;;;;;;8456767;27;27344;-74
2022/08/06 08:53:30;;;;;;;;;;;;;;;;;;8462434;27;27645;-74
2022/08/06 08:57:33;;;;;;;;;;;;;;;;;;8451529;27;29346;-74
2022/08/06 09:01:34;;;;;;;;;;;;;;;;;;8459906;27;27926;-74
2022/08/06 09:05:34;;;;;;;;;;;;;;;;;;8461644;27;28294;-74
2022/08/06 09:09:34;;;;;;;;;;;;;;;;;;8455514;27;27474;-74
2022/08/06 09:13:34;;;;;;;;;;;;;;;;;;8458375;27;28580;-74
2022/08/06 09:17:35;;;;;;;;;;;;;;;;;;8457053;27;27442;-74
2022/08/06 09:21:35;;;;;;;;;;;;;;;;;;8458191;27;28317;-74
2022/08/06 09:25:36;;;;;;;;;;;;;;;;;;8461746;27;28618;-74
2022/08/06 09:29:36;;;;;;;;;;;;;;;;;;8461645;27;28209;-74
2022/08/06 09:33:36;;;;;;;;;;;;;;;;;;8452222;27;27057;-74
2022/08/06 09:37:36;;;;;;;;;;;;;;;;;;8462550;27;27301;-74
2022/08/06 09:41:36;;;;;;;;;;;;;;;;;;8456963;27;28152;-74
2022/08/06 09:45:36;;;;;;;;;;;;;;;;;;8456690;27;27465;-74
2022/08/06 09:49:37;;;;;;;;;;;;;;;;;;8457659;27;27304;-74
2022/08/06 09:53:37;;;;;;;;;;;;;;;;;;8460554;27;28410;-74
2022/08/06 09:57:37;;;;;;;;;;;;;;;;;;8451222;27;27119;-75
2022/08/06 10:01:37;;;;;;;;;;;;;;;;;;8455054;27;27293;-74
2022/08/06 10:05:37;;;;;;;;;;;;;;;;;;8457619;27;27372;-74
2022/08/06 10:09:37;;;;;;;;;;;;;;;;;;8459538;27;27739;-73
2022/08/06 10:13:38;;;;;;;;;;;;;;;;;;8456941;27;27282;-74
2022/08/06 10:17:38;;;;;;;;;;;;;;;;;;8445593;27;28424;-74
2022/08/06 10:21:38;;;;;;;;;;;;;;;;;;8453461;27;28349;-74
2022/08/06 10:25:38;;;;;;;;;;;;;;;;;;8456601;27;27233;-74
2022/08/06 10:29:39;;;;;;;;;;;;;;;;;;8451062;27;28606;-74
2022/08/06 10:33:39;;;;;;;;;;;;;;;;;;8456950;27;27149;-74
2022/08/06 10:37:41;;;;;;;;;;;;;;;;;;8457082;27;27513;-74
2022/08/06 10:41:41;;;;;;;;;;;;;;;;;;8450230;27;27326;-74
2022/08/06 10:45:41;;;;;;;;;;;;;;;;;;8459499;27;27349;-74
2022/08/06 10:49:41;;;;;;;;;;;;;;;;;;8453736;27;27192;-74
2022/08/06 10:53:42;;;;;;;;;;;;;;;;;;8457937;27;27413;-74
2022/08/06 10:57:42;;;;;;;;;;;;;;;;;;8460638;27;28332;-74
2022/08/06 11:01:42;;;;;;;;;;;;;;;;;;8452885;27;27389;-74
2022/08/06 11:05:42;;;;;;;;;;;;;;;;;;8466910;27;28031;-74
2022/08/06 11:09:42;;;;;;;;;;;;;;;;;;8456207;27;28116;-75
2022/08/06 11:13:42;;;;;;;;;;;;;;;;;;8457992;27;28155;-74
2022/08/06 11:17:43;;;;;;;;;;;;;;;;;;8462205;27;28350;-74
2022/08/06 11:21:43;;;;;;;;;;;;;;;;;;8451270;27;28262;-75
2022/08/06 11:25:43;;;;;;;;;;;;;;;;;;8452506;27;27109;-74
2022/08/06 11:29:43;;;;;;;;;;;;;;;;;;8454353;27;27359;-74
2022/08/06 11:33:43;;;;;;;;;;;;;;;;;;8447333;27;28380;-74
2022/08/06 11:37:46;;;;;;;;;;;;;;;;;;8453935;27;27453;-74
2022/08/06 11:41:47;;;;;;;;;;;;;;;;;;8459590;27;27926;-74
2022/08/06 11:45:47;;;;;;;;;;;;;;;;;;8461288;27;27333;-74
2022/08/06 11:49:47;;;;;;;;;;;;;;;;;;8461896;27;27266;-74
2022/08/06 11:53:47;;;;;;;;;;;;;;;;;;8460102;27;28483;-74
2022/08/06 11:57:48;;;;;;;;;;;;;;;;;;8459747;27;27237;-74
2022/08/06 12:01:48;;;;;;;;;;;;;;;;;;8453672;27;28077;-74
2022/08/06 12:05:48;;;;;;;;;;;;;;;;;;8459654;27;27355;-74
2022/08/06 12:09:48;;;;;;;;;;;;;;;;;;8455543;27;27122;-74
2022/08/06 12:13:49;;;;;;;;;;;;;;;;;;8462882;27;27099;-74
2022/08/06 12:17:49;;;;;;;;;;;;;;;;;;8454477;27;29690;-74
2022/08/06 12:21:49;;;;;;;;;;;;;;;;;;8458559;27;28335;-74
2022/08/06 12:25:49;;;;;;;;;;;;;;;;;;8462417;27;27432;-74
2022/08/06 12:29:51;;;;;;;;;;;;;;;;;;8457030;27;46371;-74
2022/08/06 12:33:51;;;;;;;;;;;;;;;;;;8460050;27;27396;-74
2022/08/06 12:37:52;;;;;;;;;;;;;;;;;;8459045;27;27451;-74
2022/08/06 12:41:52;;;;;;;;;;;;;;;;;;8457672;27;27366;-73
2022/08/06 12:45:53;;;;;;;;;;;;;;;;;;8456341;27;27381;-74
2022/08/06 12:49:53;;;;;;;;;;;;;;;;;;8455761;27;27211;-74
2022/08/06 12:53:53;;;;;;;;;;;;;;;;;;8453530;27;27399;-74
2022/08/06 12:57:53;;;;;;;;;;;;;;;;;;8448425;27;27678;-73
2022/08/06 13:01:53;;;;;;;;;;;;;;;;;;8451771;27;28165;-74
2022/08/06 13:05:53;;;;;;;;;;;;;;;;;;8450520;27;27343;-74
2022/08/06 13:09:53;;;;;;;;;;;;;;;;;;8457084;27;27322;-74
2022/08/06 13:13:54;;;;;;;;;;;;;;;;;;8454941;27;27333;-73
2022/08/06 13:17:54;;;;;;;;;;;;;;;;;;8445859;27;27502;-74
2022/08/06 13:21:54;;;;;;;;;;;;;;;;;;8448032;27;28360;-74
2022/08/06 13:25:54;;;;;;;;;;;;;;;;;;8452098;27;27434;-73
2022/08/06 13:29:54;;;;;;;;;;;;;;;;;;8452916;27;28136;-74
2022/08/06 13:33:54;;;;;;;;;;;;;;;;;;8455059;27;27243;-74
2022/08/06 13:37:55;;;;;;;;;;;;;;;;;;8448662;27;27392;-74
2022/08/06 13:41:56;;;;;;;;;;;;;;;;;;8450984;27;27151;-74
2022/08/06 13:45:56;;;;;;;;;;;;;;;;;;8449182;27;27350;-74
2022/08/06 13:49:56;;;;;;;;;;;;;;;;;;8448908;27;27590;-74
2022/08/06 13:53:56;;;;;;;;;;;;;;;;;;8451972;27;27615;-73
2022/08/06 13:57:56;;;;;;;;;;;;;;;;;;8446306;27;27320;-73
2022/08/06 14:01:57;;;;;;;;;;;;;;;;;;8448008;27;27365;-74
2022/08/06 14:05:57;;;;;;;;;;;;;;;;;;8451281;27;29145;-74
2022/08/06 14:09:57;;;;;;;;;;;;;;;;;;8451796;27;27566;-73
2022/08/06 14:13:57;;;;;;;;;;;;;;;;;;8455046;27;27315;-74
2022/08/06 14:17:57;;;;;;;;;;;;;;;;;;8448381;27;27406;-74
2022/08/06 14:22:00;;;;;;;;;;;;;;;;;;8445600;27;27367;-74
2022/08/06 14:26:07;;;;;;;;;;;;;;;;;;8440209;27;28232;-74
2022/08/06 14:30:07;;;;;;;;;;;;;;;;;;8435570;27;27416;-75
2022/08/06 14:34:07;;;;;;;;;;;;;;;;;;8435110;27;27818;-74
2022/08/06 14:38:07;;;;;;;;;;;;;;;;;;8438996;27;27498;-74
2022/08/06 14:46:30;;;;;;;;;;;;;;;;;;8441868;27;27576;-74
2022/08/06 14:50:30;;;;;;;;;;;;;;;;;;8435267;27;28531;-74
2022/08/06 14:54:30;;;;;;;;;;;;;;;;;;8441623;27;27980;-74
2022/08/06 14:58:30;;;;;;;;;;;;;;;;;;8438736;27;27253;-74
2022/08/06 15:02:30;;;;;;;;;;;;;;;;;;8442853;27;27625;-74
2022/08/06 15:06:30;;;;;;;;;;;;;;;;;;8439953;27;27706;-74
2022/08/06 15:10:30;;;;;;;;;;;;;;;;;;8437606;27;28500;-74
2022/08/06 15:14:31;;;;;;;;;;;;;;;;;;8447826;27;27365;-75
2022/08/06 15:18:31;;;;;;;;;;;;;;;;;;8439471;27;29661;-74
2022/08/06 15:22:31;;;;;;;;;;;;;;;;;;8442934;27;27634;-74
2022/08/06 15:26:31;;;;;;;;;;;;;;;;;;8440223;27;28005;-74
2022/08/06 15:30:31;;;;;;;;;;;;;;;;;;8446939;27;29615;-74
2022/08/06 15:34:31;;;;;;;;;;;;;;;;;;8442971;27;28084;-74
2022/08/06 15:38:32;;;;;;;;;;;;;;;;;;8442718;27;27598;-75
2022/08/06 15:42:32;;;;;;;;;;;;;;;;;;8449260;27;30630;-74
2022/08/06 15:46:32;;;;;;;;;;;;;;;;;;8448215;27;27944;-74
2022/08/06 15:50:32;;;;;;;;;;;;;;;;;;8442437;27;27157;-74
2022/08/06 15:54:32;;;;;;;;;;;;;;;;;;8450438;27;46474;-75
2022/08/06 15:58:32;;;;;;;;;;;;;;;;;;8445397;27;28448;-74
2022/08/06 16:02:32;;;;;;;;;;;;;;;;;;8449258;27;27551;-74
2022/08/06 16:06:33;;;;;;;;;;;;;;;;;;8451661;27;28406;-75
2022/08/06 16:10:33;;;;;;;;;;;;;;;;;;8437315;27;27879;-74
2022/08/06 16:14:33;;;;;;;;;;;;;;;;;;8447474;27;27389;-74
2022/08/06 16:18:33;;;;;;;;;;;;;;;;;;8445347;27;27513;-74
2022/08/06 16:22:33;;;;;;;;;;;;;;;;;;8447633;27;27457;-74
2022/08/06 16:26:33;;;;;;;;;;;;;;;;;;8441425;27;27995;-74
2022/08/06 16:30:34;;;;;;;;;;;;;;;;;;8444445;27;27463;-74
2022/08/06 16:34:34;;;;;;;;;;;;;;;;;;8444788;27;28555;-75
2022/08/06 16:38:34;;;;;;;;;;;;;;;;;;8442115;27;27477;-74
2022/08/06 16:42:34;;;;;;;;;;;;;;;;;;8447833;27;28167;-74
2022/08/06 16:46:34;;;;;;;;;;;;;;;;;;8446377;27;28090;-75
2022/08/06 16:50:37;;;;;;;;;;;;;;;;;;8446356;27;27633;-73
2022/08/06 16:54:37;;;;;;;;;;;;;;;;;;8445347;27;28712;-75
2022/08/06 16:58:37;;;;;;;;;;;;;;;;;;8441595;27;27686;-74
2022/08/06 17:02:37;;;;;;;;;;;;;;;;;;8433699;27;28038;-75
2022/08/06 17:06:37;;;;;;;;;;;;;;;;;;8443672;27;27335;-75
2022/08/06 17:10:37;;;;;;;;;;;;;;;;;;8447333;27;27281;-75
2022/08/06 17:14:40;;;;;;;;;;;;;;;;;;8440267;27;27604;-75
2022/08/06 17:18:40;;;;;;;;;;;;;;;;;;8442136;27;28161;-75
2022/08/06 17:22:40;;;;;;;;;;;;;;;;;;8446082;27;29071;-75
2022/08/06 17:26:40;;;;;;;;;;;;;;;;;;8441997;27;27231;-75
2022/08/06 17:30:40;;;;;;;;;;;;;;;;;;8445175;27;28441;-74
2022/08/06 17:34:41;;;;;;;;;;;;;;;;;;8436648;27;28260;-75
2022/08/06 17:38:41;;;;;;;;;;;;;;;;;;8437796;27;28325;-75
2022/08/06 17:42:43;;;;;;;;;;;;;;;;;;8447915;27;27468;-75
2022/08/06 17:46:43;;;;;;;;;;;;;;;;;;8444009;27;27545;-75
2022/08/06 17:50:43;;;;;;;;;;;;;;;;;;8442644;27;28091;-75
2022/08/06 17:54:46;;;;;;;;;;;;;;;;;;8444807;27;28171;-75
2022/08/06 17:58:46;;;;;;;;;;;;;;;;;;8441667;27;27785;-75
2022/08/06 18:02:47;;;;;;;;;;;;;;;;;;8440914;27;28348;-74
2022/08/06 18:06:47;;;;;;;;;;;;;;;;;;8439296;27;27401;-75
2022/08/06 18:10:49;;;;;;;;;;;;;;;;;;8445930;27;28574;-75
2022/08/06 18:14:50;;;;;;;;;;;;;;;;;;8441617;27;27590;-75
2022/08/06 18:18:50;;;;;;;;;;;;;;;;;;8442706;27;27228;-75
2022/08/06 18:22:50;;;;;;;;;;;;;;;;;;8446647;27;27648;-75
2022/08/06 18:26:51;;;;;;;;;;;;;;;;;;8442956;27;28184;-75
2022/08/06 18:30:51;;;;;;;;;;;;;;;;;;8443441;27;27738;-75
2022/08/06 18:34:51;;;;;;;;;;;;;;;;;;8447442;27;27139;-75
2022/08/06 18:38:52;;;;;;;;;;;;;;;;;;8445732;27;27214;-75
2022/08/06 18:42:52;;;;;;;;;;;;;;;;;;8444000;27;27488;-74
2022/08/06 18:46:52;;;;;;;;;;;;;;;;;;8445638;27;27108;-75
2022/08/06 18:50:54;;;;;;;;;;;;;;;;;;8448638;27;28188;-75
2022/08/06 18:54:55;;;;;;;;;;;;;;;;;;8446186;27;28320;-74
2022/08/06 18:58:55;;;;;;;;;;;;;;;;;;8439925;27;27853;-74
2022/08/06 19:02:55;;;;;;;;;;;;;;;;;;8448872;27;27565;-74
2022/08/06 19:06:55;;;;;;;;;;;;;;;;;;8446778;27;28715;-74
2022/08/06 19:10:57;;;;;;;;;;;;;;;;;;8445528;27;27840;-74
2022/08/06 19:14:57;;;;;;;;;;;;;;;;;;8450252;27;27349;-74
2022/08/06 19:18:57;;;;;;;;;;;;;;;;;;8446447;27;27527;-74
2022/08/06 19:22:57;;;;;;;;;;;;;;;;;;8448666;27;27409;-75
2022/08/06 19:26:57;;;;;;;;;;;;;;;;;;8447257;27;27413;-74
2022/08/06 19:31:00;;;;;;;;;;;;;;;;;;8446529;27;27330;-74
2022/08/06 19:35:00;;;;;;;;;;;;;;;;;;8443862;27;27788;-74
2022/08/06 19:39:01;;;;;;;;;;;;;;;;;;8444206;27;27414;-74
2022/08/06 19:43:01;;;;;;;;;;;;;;;;;;8444953;27;28448;-74
2022/08/06 19:47:01;;;;;;;;;;;;;;;;;;8445632;27;27636;-74
2022/08/06 19:51:01;;;;;;;;;;;;;;;;;;8452446;27;27498;-74
2022/08/06 19:55:01;;;;;;;;;;;;;;;;;;8448910;27;27584;-74
2022/08/06 19:59:01;;;;;;;;;;;;;;;;;;8447681;27;27403;-74
2022/08/06 20:03:02;;;;;;;;;;;;;;;;;;8451610;27;28490;-74
2022/08/06 20:07:02;;;;;;;;;;;;;;;;;;8448589;27;27926;-74
2022/08/06 20:11:02;;;;;;;;;;;;;;;;;;8454113;27;28206;-74
2022/08/06 20:15:02;;;;;;;;;;;;;;;;;;8441883;27;27446;-74
2022/08/06 20:19:02;;;;;;;;;;;;;;;;;;8447680;27;27595;-74
2022/08/06 20:23:02;;;;;;;;;;;;;;;;;;8447657;27;27368;-74
2022/08/06 20:27:03;;;;;;;;;;;;;;;;;;8445312;27;27274;-74
2022/08/06 20:31:03;;;;;;;;;;;;;;;;;;8444950;27;27481;-74
2022/08/06 20:35:03;;;;;;;;;;;;;;;;;;8441420;27;28428;-74
2022/08/06 20:39:03;;;;;;;;;;;;;;;;;;8443603;27;27528;-74
2022/08/06 20:43:03;;;;;;;;;;;;;;;;;;8447979;27;27561;-74
2022/08/06 20:47:03;;;;;;;;;;;;;;;;;;8445784;27;27291;-74
2022/08/06 20:51:04;;;;;;;;;;;;;;;;;;8443684;27;27698;-74
2022/08/06 20:55:04;;;;;;;;;;;;;;;;;;8445905;27;27930;-74
2022/08/06 20:59:04;;;;;;;;;;;;;;;;;;8444206;27;28234;-74
2022/08/06 21:03:04;;;;;;;;;;;;;;;;;;8450789;27;28242;-74
2022/08/06 21:07:05;;;;;;;;;;;;;;;;;;8443406;27;28693;-74
2022/08/06 21:11:05;;;;;;;;;;;;;;;;;;8442268;27;27490;-74
2022/08/06 21:15:05;;;;;;;;;;;;;;;;;;8449019;27;27477;-74
2022/08/06 21:19:06;;;;;;;;;;;;;;;;;;8443425;27;28242;-74
2022/08/06 21:23:06;;;;;;;;;;;;;;;;;;8446731;27;27305;-74
2022/08/06 21:27:06;;;;;;;;;;;;;;;;;;8442240;27;28519;-74
2022/08/06 21:31:06;;;;;;;;;;;;;;;;;;8443707;27;27462;-74
2022/08/06 21:35:06;;;;;;;;;;;;;;;;;;8445417;27;27865;-74
2022/08/06 21:39:07;;;;;;;;;;;;;;;;;;8446234;27;27347;-74
2022/08/06 21:43:07;;;;;;;;;;;;;;;;;;8445201;27;27325;-74
2022/08/06 21:47:07;;;;;;;;;;;;;;;;;;8442009;27;27510;-74
2022/08/06 21:51:07;;;;;;;;;;;;;;;;;;8439433;27;28664;-74
2022/08/06 21:55:07;;;;;;;;;;;;;;;;;;8440777;27;27454;-74
2022/08/06 21:59:07;;;;;;;;;;;;;;;;;;8441461;27;28147;-74
2022/08/06 22:03:07;;;;;;;;;;;;;;;;;;8445714;27;27325;-74
2022/08/06 22:07:08;;;;;;;;;;;;;;;;;;8442748;27;27566;-74
2022/08/06 22:11:08;;;;;;;;;;;;;;;;;;8444844;27;27340;-74
2022/08/06 22:15:08;;;;;;;;;;;;;;;;;;8441357;27;27597;-74
2022/08/06 22:19:08;;;;;;;;;;;;;;;;;;8443343;27;28243;-74
2022/08/06 22:23:08;;;;;;;;;;;;;;;;;;8443018;27;28285;-74
2022/08/06 22:27:08;;;;;;;;;;;;;;;;;;8440996;27;27342;-74
2022/08/06 22:31:09;;;;;;;;;;;;;;;;;;8442167;27;27565;-74
2022/08/06 22:35:09;;;;;;;;;;;;;;;;;;8440854;27;27373;-74
2022/08/06 22:39:09;;;;;;;;;;;;;;;;;;8438751;27;27548;-74
2022/08/06 22:43:09;;;;;;;;;;;;;;;;;;8441434;27;27871;-74
2022/08/06 22:47:09;;;;;;;;;;;;;;;;;;8440437;27;28508;-74
2022/08/06 22:51:09;;;;;;;;;;;;;;;;;;8443269;27;27426;-74
2022/08/06 22:55:09;;;;;;;;;;;;;;;;;;8440473;27;28049;-74
2022/08/06 22:59:10;;;;;;;;;;;;;;;;;;8441938;27;27982;-74
2022/08/06 23:03:10;;;;;;;;;;;;;;;;;;8445299;27;28270;-74
2022/08/06 23:07:10;;;;;;;;;;;;;;;;;;8439878;27;27336;-74
2022/08/06 23:11:10;;;;;;;;;;;;;;;;;;8440632;27;28303;-74
2022/08/06 23:15:10;;;;;;;;;;;;;;;;;;8439703;27;27463;-74
2022/08/06 23:19:10;;;;;;;;;;;;;;;;;;8441920;27;28502;-74
2022/08/06 23:23:10;;;;;;;;;;;;;;;;;;8443079;27;27753;-74
2022/08/06 23:27:11;;;;;;;;;;;;;;;;;;8441843;27;27238;-74
2022/08/06 23:31:11;;;;;;;;;;;;;;;;;;8438819;27;28543;-74
2022/08/06 23:35:11;;;;;;;;;;;;;;;;;;8448135;27;28756;-74
2022/08/06 23:39:12;;;;;;;;;;;;;;;;;;8447954;27;27086;-74
2022/08/06 23:43:12;;;;;;;;;;;;;;;;;;8450998;27;27267;-74
2022/08/06 23:47:12;;;;;;;;;;;;;;;;;;8447611;27;27423;-74
2022/08/06 23:51:15;;;;;;;;;;;;;;;;;;8452631;27;27596;-74
2022/08/06 23:55:15;;;;;;;;;;;;;;;;;;8446939;27;27446;-74
2022/08/06 23:59:15;;;;;;;;;;;;;;;;;;8448066;27;27503;-74
